sensor_id;sensor_type;location;lat;lon;timestamp;P1;durP1;ratioP1;P2;durP2;ratioP2
81901;SDS011;71369;50.796;3.290;2024-01-15T00:01:11;7.80;;;4.53;;
81901;SDS011;71369;50.796;3.290;2024-01-15T00:03:37;6.78;;;4.90;;
81901;SDS011;71369;50.796;3.290;2024-01-15T00:06:03;8.35;;;5.10;;
81901;SDS011;71369;50.796;3.290;2024-01-15T00:08:29;8.32;;;4.90;;
81901;SDS011;71369;50.796;3.290;2024-01-15T00:11:00;10.60;;;5.30;;
81901;SDS011;71369;50.796;3.290;2024-01-15T00:13:26;7.68;;;4.45;;
81901;SDS011;71369;50.796;3.290;2024-01-15T00:15:52;7.93;;;4.88;;
81901;SDS011;71369;50.796;3.290;2024-01-15T00:18:20;9.45;;;5.38;;
81901;SDS011;71369;50.796;3.290;2024-01-15T00:20:49;13.23;;;5.18;;
81901;SDS011;71369;50.796;3.290;2024-01-15T00:23:14;6.82;;;4.53;;
81901;SDS011;71369;50.796;3.290;2024-01-15T00:25:42;8.65;;;4.97;;
81901;SDS011;71369;50.796;3.290;2024-01-15T00:28:08;7.22;;;4.78;;
81901;SDS011;71369;50.796;3.290;2024-01-15T00:30:33;10.18;;;5.47;;
81901;SDS011;71369;50.796;3.290;2024-01-15T00:32:59;9.23;;;5.28;;
81901;SDS011;71369;50.796;3.290;2024-01-15T00:35:25;16.40;;;5.53;;
81901;SDS011;71369;50.796;3.290;2024-01-15T00:37:51;9.80;;;4.78;;
81901;SDS011;71369;50.796;3.290;2024-01-15T00:40:17;7.47;;;4.45;;
81901;SDS011;71369;50.796;3.290;2024-01-15T00:42:42;6.97;;;4.57;;
81901;SDS011;71369;50.796;3.290;2024-01-15T00:45:10;7.25;;;5.13;;
81901;SDS011;71369;50.796;3.290;2024-01-15T00:47:37;7.47;;;4.68;;
81901;SDS011;71369;50.796;3.290;2024-01-15T00:50:03;8.32;;;4.90;;
81901;SDS011;71369;50.796;3.290;2024-01-15T00:52:29;7.72;;;5.03;;
81901;SDS011;71369;50.796;3.290;2024-01-15T00:54:56;6.13;;;4.10;;
81901;SDS011;71369;50.796;3.290;2024-01-15T00:57:22;8.73;;;4.60;;
81901;SDS011;71369;50.796;3.290;2024-01-15T00:59:51;7.38;;;4.60;;
81901;SDS011;71369;50.796;3.290;2024-01-15T01:02:16;10.15;;;4.13;;
81901;SDS011;71369;50.796;3.290;2024-01-15T01:04:42;8.95;;;4.28;;
81901;SDS011;71369;50.796;3.290;2024-01-15T01:07:08;12.40;;;4.25;;
81901;SDS011;71369;50.796;3.290;2024-01-15T01:09:34;6.18;;;4.00;;
81901;SDS011;71369;50.796;3.290;2024-01-15T01:11:59;7.05;;;4.28;;
81901;SDS011;71369;50.796;3.290;2024-01-15T01:14:26;7.18;;;4.50;;
81901;SDS011;71369;50.796;3.290;2024-01-15T01:16:56;7.32;;;3.72;;
81901;SDS011;71369;50.796;3.290;2024-01-15T01:19:37;7.40;;;4.15;;
81901;SDS011;71369;50.796;3.290;2024-01-15T01:22:05;6.95;;;3.25;;
81901;SDS011;71369;50.796;3.290;2024-01-15T01:24:32;4.95;;;3.22;;
81901;SDS011;71369;50.796;3.290;2024-01-15T01:26:59;6.32;;;3.50;;
81901;SDS011;71369;50.796;3.290;2024-01-15T01:29:28;5.95;;;3.55;;
81901;SDS011;71369;50.796;3.290;2024-01-15T01:31:54;6.40;;;3.47;;
81901;SDS011;71369;50.796;3.290;2024-01-15T01:34:24;10.20;;;4.03;;
81901;SDS011;71369;50.796;3.290;2024-01-15T01:39:20;6.50;;;3.92;;
81901;SDS011;71369;50.796;3.290;2024-01-15T01:41:46;6.82;;;3.90;;
81901;SDS011;71369;50.796;3.290;2024-01-15T01:44:14;6.00;;;3.38;;
81901;SDS011;71369;50.796;3.290;2024-01-15T01:46:39;7.53;;;3.88;;
81901;SDS011;71369;50.796;3.290;2024-01-15T01:49:06;10.63;;;3.67;;
81901;SDS011;71369;50.796;3.290;2024-01-15T01:51:34;7.50;;;4.07;;
81901;SDS011;71369;50.796;3.290;2024-01-15T01:54:01;9.77;;;5.43;;
81901;SDS011;71369;50.796;3.290;2024-01-15T01:56:27;8.13;;;4.13;;
81901;SDS011;71369;50.796;3.290;2024-01-15T01:58:53;8.10;;;4.82;;
81901;SDS011;71369;50.796;3.290;2024-01-15T02:01:19;7.70;;;4.20;;
81901;SDS011;71369;50.796;3.290;2024-01-15T02:03:46;9.27;;;5.10;;
81901;SDS011;71369;50.796;3.290;2024-01-15T02:06:13;6.88;;;4.22;;
81901;SDS011;71369;50.796;3.290;2024-01-15T02:08:39;9.00;;;4.60;;
81901;SDS011;71369;50.796;3.290;2024-01-15T02:11:08;7.35;;;4.20;;
81901;SDS011;71369;50.796;3.290;2024-01-15T02:13:34;8.55;;;4.60;;
81901;SDS011;71369;50.796;3.290;2024-01-15T02:15:59;10.38;;;4.75;;
81901;SDS011;71369;50.796;3.290;2024-01-15T02:18:25;10.18;;;4.63;;
81901;SDS011;71369;50.796;3.290;2024-01-15T02:20:51;7.10;;;4.38;;
81901;SDS011;71369;50.796;3.290;2024-01-15T02:23:16;8.80;;;4.20;;
81901;SDS011;71369;50.796;3.290;2024-01-15T02:25:43;8.05;;;4.63;;
81901;SDS011;71369;50.796;3.290;2024-01-15T02:28:12;7.72;;;4.55;;
81901;SDS011;71369;50.796;3.290;2024-01-15T02:30:40;11.75;;;5.80;;
81901;SDS011;71369;50.796;3.290;2024-01-15T02:33:07;9.18;;;5.30;;
81901;SDS011;71369;50.796;3.290;2024-01-15T02:35:34;12.15;;;5.65;;
81901;SDS011;71369;50.796;3.290;2024-01-15T02:38:04;11.70;;;6.05;;
81901;SDS011;71369;50.796;3.290;2024-01-15T02:40:32;10.07;;;5.60;;
81901;SDS011;71369;50.796;3.290;2024-01-15T02:42:58;12.57;;;6.30;;
81901;SDS011;71369;50.796;3.290;2024-01-15T02:45:24;10.13;;;6.35;;
81901;SDS011;71369;50.796;3.290;2024-01-15T02:47:50;11.07;;;5.30;;
81901;SDS011;71369;50.796;3.290;2024-01-15T02:50:15;9.10;;;5.00;;
81901;SDS011;71369;50.796;3.290;2024-01-15T02:52:41;8.73;;;5.03;;
81901;SDS011;71369;50.796;3.290;2024-01-15T02:55:08;8.77;;;4.78;;
81901;SDS011;71369;50.796;3.290;2024-01-15T02:57:34;11.73;;;5.53;;
81901;SDS011;71369;50.796;3.290;2024-01-15T02:59:59;7.80;;;4.68;;
81901;SDS011;71369;50.796;3.290;2024-01-15T03:02:26;9.88;;;4.97;;
81901;SDS011;71369;50.796;3.290;2024-01-15T03:04:53;7.45;;;4.10;;
81901;SDS011;71369;50.796;3.290;2024-01-15T03:07:19;7.43;;;4.57;;
81901;SDS011;71369;50.796;3.290;2024-01-15T03:09:48;7.15;;;4.28;;
81901;SDS011;71369;50.796;3.290;2024-01-15T03:14:43;10.27;;;5.13;;
81901;SDS011;71369;50.796;3.290;2024-01-15T03:19:38;9.93;;;4.22;;
81901;SDS011;71369;50.796;3.290;2024-01-15T03:22:04;7.40;;;5.40;;
81901;SDS011;71369;50.796;3.290;2024-01-15T03:24:47;9.75;;;5.10;;
81901;SDS011;71369;50.796;3.290;2024-01-15T03:27:13;10.40;;;5.40;;
81901;SDS011;71369;50.796;3.290;2024-01-15T03:29:40;9.43;;;4.88;;
81901;SDS011;71369;50.796;3.290;2024-01-15T03:32:09;10.90;;;5.70;;
81901;SDS011;71369;50.796;3.290;2024-01-15T03:34:35;12.18;;;5.93;;
81901;SDS011;71369;50.796;3.290;2024-01-15T03:37:05;11.32;;;5.80;;
81901;SDS011;71369;50.796;3.290;2024-01-15T03:39:30;11.68;;;5.53;;
81901;SDS011;71369;50.796;3.290;2024-01-15T03:41:56;7.40;;;4.85;;
81901;SDS011;71369;50.796;3.290;2024-01-15T03:44:32;9.93;;;5.45;;
81901;SDS011;71369;50.796;3.290;2024-01-15T03:47:01;10.20;;;4.63;;
81901;SDS011;71369;50.796;3.290;2024-01-15T03:49:26;8.57;;;4.93;;
81901;SDS011;71369;50.796;3.290;2024-01-15T03:51:56;10.07;;;4.93;;
81901;SDS011;71369;50.796;3.290;2024-01-15T03:54:22;8.35;;;5.18;;
81901;SDS011;71369;50.796;3.290;2024-01-15T03:56:51;10.38;;;4.93;;
81901;SDS011;71369;50.796;3.290;2024-01-15T03:59:22;10.68;;;5.57;;
81901;SDS011;71369;50.796;3.290;2024-01-15T04:01:49;7.50;;;4.38;;
81901;SDS011;71369;50.796;3.290;2024-01-15T04:04:17;9.02;;;3.55;;
81901;SDS011;71369;50.796;3.290;2024-01-15T04:07:07;8.13;;;4.72;;
81901;SDS011;71369;50.796;3.290;2024-01-15T04:09:38;6.75;;;3.70;;
81901;SDS011;71369;50.796;3.290;2024-01-15T04:12:06;5.40;;;3.42;;
81901;SDS011;71369;50.796;3.290;2024-01-15T04:14:38;5.07;;;2.72;;
81901;SDS011;71369;50.796;3.290;2024-01-15T04:17:28;6.15;;;2.85;;
81901;SDS011;71369;50.796;3.290;2024-01-15T04:19:54;3.85;;;2.70;;
81901;SDS011;71369;50.796;3.290;2024-01-15T04:22:24;4.97;;;3.15;;
81901;SDS011;71369;50.796;3.290;2024-01-15T04:24:51;7.15;;;3.35;;
81901;SDS011;71369;50.796;3.290;2024-01-15T04:27:19;4.18;;;2.85;;
81901;SDS011;71369;50.796;3.290;2024-01-15T04:29:45;4.82;;;2.45;;
81901;SDS011;71369;50.796;3.290;2024-01-15T04:32:13;2.60;;;2.40;;
81901;SDS011;71369;50.796;3.290;2024-01-15T04:34:41;2.45;;;2.25;;
81901;SDS011;71369;50.796;3.290;2024-01-15T04:37:07;3.38;;;2.47;;
81901;SDS011;71369;50.796;3.290;2024-01-15T04:39:33;7.20;;;2.40;;
81901;SDS011;71369;50.796;3.290;2024-01-15T04:41:59;3.10;;;2.17;;
81901;SDS011;71369;50.796;3.290;2024-01-15T04:44:24;4.32;;;2.70;;
81901;SDS011;71369;50.796;3.290;2024-01-15T04:46:50;1.73;;;1.63;;
81901;SDS011;71369;50.796;3.290;2024-01-15T04:49:16;6.38;;;2.15;;
81901;SDS011;71369;50.796;3.290;2024-01-15T04:54:10;5.07;;;2.13;;
81901;SDS011;71369;50.796;3.290;2024-01-15T04:56:36;3.97;;;2.35;;
81901;SDS011;71369;50.796;3.290;2024-01-15T04:59:02;4.30;;;2.45;;
81901;SDS011;71369;50.796;3.290;2024-01-15T05:01:31;3.90;;;1.98;;
81901;SDS011;71369;50.796;3.290;2024-01-15T05:03:59;4.07;;;1.95;;
81901;SDS011;71369;50.796;3.290;2024-01-15T05:06:26;5.45;;;2.08;;
81901;SDS011;71369;50.796;3.290;2024-01-15T05:08:51;4.28;;;2.42;;
81901;SDS011;71369;50.796;3.290;2024-01-15T05:11:17;3.45;;;1.92;;
81901;SDS011;71369;50.796;3.290;2024-01-15T05:13:43;3.75;;;2.10;;
81901;SDS011;71369;50.796;3.290;2024-01-15T05:16:09;4.45;;;1.92;;
81901;SDS011;71369;50.796;3.290;2024-01-15T05:18:34;4.68;;;2.53;;
81901;SDS011;71369;50.796;3.290;2024-01-15T05:21:02;4.95;;;2.65;;
81901;SDS011;71369;50.796;3.290;2024-01-15T05:23:28;11.13;;;3.20;;
81901;SDS011;71369;50.796;3.290;2024-01-15T05:25:56;4.45;;;2.35;;
81901;SDS011;71369;50.796;3.290;2024-01-15T05:28:23;4.47;;;2.50;;
81901;SDS011;71369;50.796;3.290;2024-01-15T05:30:49;4.00;;;2.70;;
81901;SDS011;71369;50.796;3.290;2024-01-15T05:33:16;3.83;;;2.55;;
81901;SDS011;71369;50.796;3.290;2024-01-15T05:35:48;2.83;;;2.10;;
81901;SDS011;71369;50.796;3.290;2024-01-15T05:38:15;6.10;;;2.40;;
81901;SDS011;71369;50.796;3.290;2024-01-15T05:40:43;3.05;;;2.38;;
81901;SDS011;71369;50.796;3.290;2024-01-15T05:43:08;7.05;;;2.90;;
81901;SDS011;71369;50.796;3.290;2024-01-15T05:45:34;4.68;;;2.60;;
81901;SDS011;71369;50.796;3.290;2024-01-15T05:48:01;6.93;;;2.65;;
81901;SDS011;71369;50.796;3.290;2024-01-15T05:50:27;4.40;;;2.42;;
81901;SDS011;71369;50.796;3.290;2024-01-15T05:52:52;4.57;;;2.50;;
81901;SDS011;71369;50.796;3.290;2024-01-15T05:55:18;5.93;;;2.40;;
81901;SDS011;71369;50.796;3.290;2024-01-15T05:57:44;10.40;;;4.78;;
81901;SDS011;71369;50.796;3.290;2024-01-15T06:00:10;6.38;;;3.05;;
81901;SDS011;71369;50.796;3.290;2024-01-15T06:02:39;7.28;;;2.60;;
81901;SDS011;71369;50.796;3.290;2024-01-15T06:05:05;7.07;;;2.28;;
81901;SDS011;71369;50.796;3.290;2024-01-15T06:07:35;6.30;;;2.53;;
81901;SDS011;71369;50.796;3.290;2024-01-15T06:10:01;7.63;;;2.50;;
81901;SDS011;71369;50.796;3.290;2024-01-15T06:12:27;3.28;;;2.13;;
81901;SDS011;71369;50.796;3.290;2024-01-15T06:14:53;5.32;;;2.70;;
81901;SDS011;71369;50.796;3.290;2024-01-15T06:17:19;7.55;;;2.55;;
81901;SDS011;71369;50.796;3.290;2024-01-15T06:19:45;7.72;;;2.17;;
81901;SDS011;71369;50.796;3.290;2024-01-15T06:22:10;4.75;;;1.95;;
81901;SDS011;71369;50.796;3.290;2024-01-15T06:24:36;4.28;;;2.20;;
81901;SDS011;71369;50.796;3.290;2024-01-15T06:27:02;6.00;;;2.45;;
81901;SDS011;71369;50.796;3.290;2024-01-15T06:29:28;5.05;;;1.92;;
81901;SDS011;71369;50.796;3.290;2024-01-15T06:31:56;5.15;;;2.20;;
81901;SDS011;71369;50.796;3.290;2024-01-15T06:34:22;5.20;;;2.20;;
81901;SDS011;71369;50.796;3.290;2024-01-15T06:36:48;6.13;;;2.13;;
81901;SDS011;71369;50.796;3.290;2024-01-15T06:39:13;5.82;;;2.00;;
81901;SDS011;71369;50.796;3.290;2024-01-15T06:41:39;4.78;;;2.22;;
81901;SDS011;71369;50.796;3.290;2024-01-15T06:44:11;4.63;;;2.38;;
81901;SDS011;71369;50.796;3.290;2024-01-15T06:46:44;4.00;;;2.05;;
81901;SDS011;71369;50.796;3.290;2024-01-15T06:49:11;6.05;;;2.42;;
81901;SDS011;71369;50.796;3.290;2024-01-15T06:51:37;7.47;;;2.28;;
81901;SDS011;71369;50.796;3.290;2024-01-15T06:54:03;6.65;;;2.50;;
81901;SDS011;71369;50.796;3.290;2024-01-15T06:56:29;4.78;;;2.33;;
81901;SDS011;71369;50.796;3.290;2024-01-15T06:58:56;4.13;;;2.30;;
81901;SDS011;71369;50.796;3.290;2024-01-15T07:01:22;11.10;;;2.40;;
81901;SDS011;71369;50.796;3.290;2024-01-15T07:03:48;8.48;;;2.38;;
81901;SDS011;71369;50.796;3.290;2024-01-15T07:06:15;5.68;;;2.20;;
81901;SDS011;71369;50.796;3.290;2024-01-15T07:08:41;6.53;;;3.42;;
81901;SDS011;71369;50.796;3.290;2024-01-15T07:11:08;3.67;;;2.20;;
81901;SDS011;71369;50.796;3.290;2024-01-15T07:13:35;3.95;;;2.58;;
81901;SDS011;71369;50.796;3.290;2024-01-15T07:16:05;5.93;;;2.30;;
81901;SDS011;71369;50.796;3.290;2024-01-15T07:18:31;5.78;;;2.30;;
81901;SDS011;71369;50.796;3.290;2024-01-15T07:20:57;13.07;;;2.67;;
81901;SDS011;71369;50.796;3.290;2024-01-15T07:23:24;4.93;;;3.08;;
81901;SDS011;71369;50.796;3.290;2024-01-15T07:25:50;5.78;;;2.63;;
81901;SDS011;71369;50.796;3.290;2024-01-15T07:28:17;6.97;;;2.92;;
81901;SDS011;71369;50.796;3.290;2024-01-15T07:30:42;4.40;;;2.33;;
81901;SDS011;71369;50.796;3.290;2024-01-15T07:33:08;6.85;;;2.90;;
81901;SDS011;71369;50.796;3.290;2024-01-15T07:35:36;4.07;;;2.50;;
81901;SDS011;71369;50.796;3.290;2024-01-15T07:38:01;6.05;;;2.65;;
81901;SDS011;71369;50.796;3.290;2024-01-15T07:40:27;10.25;;;2.25;;
81901;SDS011;71369;50.796;3.290;2024-01-15T07:42:56;8.82;;;2.55;;
81901;SDS011;71369;50.796;3.290;2024-01-15T07:45:28;8.20;;;3.08;;
81901;SDS011;71369;50.796;3.290;2024-01-15T07:47:53;4.68;;;2.45;;
81901;SDS011;71369;50.796;3.290;2024-01-15T07:50:19;14.15;;;2.65;;
81901;SDS011;71369;50.796;3.290;2024-01-15T07:52:45;6.85;;;2.78;;
81901;SDS011;71369;50.796;3.290;2024-01-15T07:55:11;4.53;;;2.50;;
81901;SDS011;71369;50.796;3.290;2024-01-15T07:57:36;5.32;;;2.65;;
81901;SDS011;71369;50.796;3.290;2024-01-15T08:00:03;3.67;;;1.98;;
81901;SDS011;71369;50.796;3.290;2024-01-15T08:02:30;4.40;;;2.42;;
81901;SDS011;71369;50.796;3.290;2024-01-15T08:04:58;3.33;;;2.38;;
81901;SDS011;71369;50.796;3.290;2024-01-15T08:07:24;7.13;;;2.60;;
81901;SDS011;71369;50.796;3.290;2024-01-15T08:09:51;4.72;;;2.83;;
81901;SDS011;71369;50.796;3.290;2024-01-15T08:12:17;5.68;;;2.42;;
81901;SDS011;71369;50.796;3.290;2024-01-15T08:14:43;6.43;;;2.42;;
81901;SDS011;71369;50.796;3.290;2024-01-15T08:17:10;10.65;;;2.80;;
81901;SDS011;71369;50.796;3.290;2024-01-15T08:19:36;4.00;;;2.53;;
81901;SDS011;71369;50.796;3.290;2024-01-15T08:22:02;10.57;;;2.63;;
81901;SDS011;71369;50.796;3.290;2024-01-15T08:24:28;13.23;;;2.90;;
81901;SDS011;71369;50.796;3.290;2024-01-15T08:26:54;4.50;;;2.70;;
81901;SDS011;71369;50.796;3.290;2024-01-15T08:29:21;3.70;;;2.25;;
81901;SDS011;71369;50.796;3.290;2024-01-15T08:31:47;3.55;;;2.30;;
81901;SDS011;71369;50.796;3.290;2024-01-15T08:34:14;8.00;;;2.58;;
81901;SDS011;71369;50.796;3.290;2024-01-15T08:36:41;10.35;;;2.97;;
81901;SDS011;71369;50.796;3.290;2024-01-15T08:39:07;6.40;;;2.67;;
81901;SDS011;71369;50.796;3.290;2024-01-15T08:41:36;5.00;;;2.20;;
81901;SDS011;71369;50.796;3.290;2024-01-15T08:44:05;4.40;;;2.15;;
81901;SDS011;71369;50.796;3.290;2024-01-15T08:46:31;7.82;;;2.83;;
81901;SDS011;71369;50.796;3.290;2024-01-15T08:48:56;12.30;;;5.85;;
81901;SDS011;71369;50.796;3.290;2024-01-15T08:51:22;9.60;;;4.20;;
81901;SDS011;71369;50.796;3.290;2024-01-15T08:56:21;8.90;;;2.65;;
81901;SDS011;71369;50.796;3.290;2024-01-15T08:58:49;6.07;;;2.60;;
81901;SDS011;71369;50.796;3.290;2024-01-15T09:01:17;3.58;;;2.35;;
81901;SDS011;71369;50.796;3.290;2024-01-15T09:03:42;4.93;;;2.35;;
81901;SDS011;71369;50.796;3.290;2024-01-15T09:06:09;12.50;;;3.03;;
81901;SDS011;71369;50.796;3.290;2024-01-15T09:08:35;7.40;;;2.60;;
81901;SDS011;71369;50.796;3.290;2024-01-15T09:11:02;6.85;;;2.17;;
81901;SDS011;71369;50.796;3.290;2024-01-15T09:13:30;7.03;;;2.55;;
81901;SDS011;71369;50.796;3.290;2024-01-15T09:15:57;5.82;;;2.47;;
81901;SDS011;71369;50.796;3.290;2024-01-15T09:18:24;4.10;;;2.15;;
81901;SDS011;71369;50.796;3.290;2024-01-15T09:20:52;2.90;;;1.80;;
81901;SDS011;71369;50.796;3.290;2024-01-15T09:23:17;5.90;;;2.40;;
81901;SDS011;71369;50.796;3.290;2024-01-15T09:25:43;23.17;;;2.75;;
81901;SDS011;71369;50.796;3.290;2024-01-15T09:30:39;6.82;;;2.33;;
81901;SDS011;71369;50.796;3.290;2024-01-15T09:33:12;4.78;;;2.33;;
81901;SDS011;71369;50.796;3.290;2024-01-15T09:35:39;2.33;;;1.60;;
81901;SDS011;71369;50.796;3.290;2024-01-15T09:38:06;2.67;;;1.73;;
81901;SDS011;71369;50.796;3.290;2024-01-15T09:40:33;3.05;;;1.90;;
81901;SDS011;71369;50.796;3.290;2024-01-15T09:43:12;5.28;;;2.10;;
81901;SDS011;71369;50.796;3.290;2024-01-15T09:45:38;5.22;;;2.00;;
81901;SDS011;71369;50.796;3.290;2024-01-15T09:48:06;3.65;;;1.88;;
81901;SDS011;71369;50.796;3.290;2024-01-15T09:50:33;4.53;;;2.08;;
81901;SDS011;71369;50.796;3.290;2024-01-15T09:52:59;2.85;;;1.90;;
81901;SDS011;71369;50.796;3.290;2024-01-15T09:55:29;2.88;;;1.45;;
81901;SDS011;71369;50.796;3.290;2024-01-15T09:57:55;4.43;;;1.70;;
81901;SDS011;71369;50.796;3.290;2024-01-15T10:00:21;2.67;;;1.73;;
81901;SDS011;71369;50.796;3.290;2024-01-15T10:02:48;4.43;;;1.40;;
81901;SDS011;71369;50.796;3.290;2024-01-15T10:05:14;2.17;;;1.30;;
81901;SDS011;71369;50.796;3.290;2024-01-15T10:07:40;4.78;;;1.40;;
81901;SDS011;71369;50.796;3.290;2024-01-15T10:10:07;2.40;;;1.52;;
81901;SDS011;71369;50.796;3.290;2024-01-15T10:12:33;2.60;;;1.20;;
81901;SDS011;71369;50.796;3.290;2024-01-15T10:14:59;5.00;;;1.50;;
81901;SDS011;71369;50.796;3.290;2024-01-15T10:17:26;5.15;;;1.70;;
81901;SDS011;71369;50.796;3.290;2024-01-15T10:19:56;2.65;;;1.00;;
81901;SDS011;71369;50.796;3.290;2024-01-15T10:22:22;4.38;;;1.40;;
81901;SDS011;71369;50.796;3.290;2024-01-15T10:24:48;3.67;;;1.60;;
81901;SDS011;71369;50.796;3.290;2024-01-15T10:27:18;6.72;;;1.38;;
81901;SDS011;71369;50.796;3.290;2024-01-15T10:29:44;2.55;;;1.10;;
81901;SDS011;71369;50.796;3.290;2024-01-15T10:32:10;5.05;;;1.50;;
81901;SDS011;71369;50.796;3.290;2024-01-15T10:34:37;3.28;;;1.52;;
81901;SDS011;71369;50.796;3.290;2024-01-15T10:37:06;5.95;;;1.60;;
81901;SDS011;71369;50.796;3.290;2024-01-15T10:39:32;2.38;;;1.50;;
81901;SDS011;71369;50.796;3.290;2024-01-15T10:41:58;6.50;;;1.60;;
81901;SDS011;71369;50.796;3.290;2024-01-15T10:44:27;4.75;;;1.30;;
81901;SDS011;71369;50.796;3.290;2024-01-15T10:46:54;2.92;;;1.52;;
81901;SDS011;71369;50.796;3.290;2024-01-15T10:49:21;4.43;;;1.40;;
81901;SDS011;71369;50.796;3.290;2024-01-15T10:51:51;6.03;;;1.60;;
81901;SDS011;71369;50.796;3.290;2024-01-15T10:54:19;8.70;;;1.48;;
81901;SDS011;71369;50.796;3.290;2024-01-15T10:56:52;5.18;;;1.33;;
81901;SDS011;71369;50.796;3.290;2024-01-15T10:59:21;5.10;;;1.65;;
81901;SDS011;71369;50.796;3.290;2024-01-15T11:01:48;1.95;;;1.23;;
81901;SDS011;71369;50.796;3.290;2024-01-15T11:04:19;5.75;;;1.50;;
81901;SDS011;71369;50.796;3.290;2024-01-15T11:06:47;3.97;;;1.20;;
81901;SDS011;71369;50.796;3.290;2024-01-15T11:09:15;6.55;;;2.55;;
81901;SDS011;71369;50.796;3.290;2024-01-15T11:11:44;3.80;;;1.27;;
81901;SDS011;71369;50.796;3.290;2024-01-15T11:14:33;5.70;;;1.35;;
81901;SDS011;71369;50.796;3.290;2024-01-15T11:17:03;4.95;;;1.70;;
81901;SDS011;71369;50.796;3.290;2024-01-15T11:19:37;2.65;;;1.05;;
81901;SDS011;71369;50.796;3.290;2024-01-15T11:22:10;6.50;;;1.35;;
81901;SDS011;71369;50.796;3.290;2024-01-15T11:25:14;8.23;;;1.27;;
81901;SDS011;71369;50.796;3.290;2024-01-15T11:30:12;7.43;;;2.17;;
81901;SDS011;71369;50.796;3.290;2024-01-15T11:32:39;6.38;;;1.27;;
81901;SDS011;71369;50.796;3.290;2024-01-15T11:35:10;3.40;;;1.20;;
81901;SDS011;71369;50.796;3.290;2024-01-15T11:42:59;4.50;;;1.73;;
81901;SDS011;71369;50.796;3.290;2024-01-15T11:45:25;7.30;;;1.70;;
81901;SDS011;71369;50.796;3.290;2024-01-15T11:50:45;5.13;;;1.63;;
81901;SDS011;71369;50.796;3.290;2024-01-15T11:56:16;9.38;;;2.28;;
81901;SDS011;71369;50.796;3.290;2024-01-15T11:58:47;5.60;;;1.85;;
81901;SDS011;71369;50.796;3.290;2024-01-15T12:01:12;5.00;;;1.80;;
81901;SDS011;71369;50.796;3.290;2024-01-15T12:03:48;6.70;;;1.73;;
81901;SDS011;71369;50.796;3.290;2024-01-15T12:06:16;6.03;;;1.60;;
81901;SDS011;71369;50.796;3.290;2024-01-15T12:09:05;7.55;;;1.60;;
81901;SDS011;71369;50.796;3.290;2024-01-15T12:11:34;4.63;;;1.70;;
81901;SDS011;71369;50.796;3.290;2024-01-15T12:14:04;2.28;;;1.30;;
81901;SDS011;71369;50.796;3.290;2024-01-15T12:16:29;2.65;;;1.42;;
81901;SDS011;71369;50.796;3.290;2024-01-15T12:18:56;4.78;;;1.38;;
81901;SDS011;71369;50.796;3.290;2024-01-15T12:21:22;6.05;;;1.92;;
81901;SDS011;71369;50.796;3.290;2024-01-15T12:23:51;7.45;;;1.70;;
81901;SDS011;71369;50.796;3.290;2024-01-15T12:26:17;3.45;;;1.38;;
81901;SDS011;71369;50.796;3.290;2024-01-15T12:28:54;7.07;;;1.88;;
81901;SDS011;71369;50.796;3.290;2024-01-15T12:31:20;3.28;;;1.80;;
81901;SDS011;71369;50.796;3.290;2024-01-15T12:33:45;5.20;;;1.50;;
81901;SDS011;71369;50.796;3.290;2024-01-15T12:36:13;2.33;;;1.67;;
81901;SDS011;71369;50.796;3.290;2024-01-15T12:38:39;5.65;;;1.35;;
81901;SDS011;71369;50.796;3.290;2024-01-15T12:41:05;4.90;;;1.80;;
81901;SDS011;71369;50.796;3.290;2024-01-15T12:43:32;7.03;;;1.42;;
81901;SDS011;71369;50.796;3.290;2024-01-15T12:45:57;4.18;;;1.38;;
81901;SDS011;71369;50.796;3.290;2024-01-15T12:48:23;4.90;;;1.30;;
81901;SDS011;71369;50.796;3.290;2024-01-15T12:50:51;4.65;;;1.40;;
81901;SDS011;71369;50.796;3.290;2024-01-15T12:53:23;4.55;;;1.50;;
81901;SDS011;71369;50.796;3.290;2024-01-15T12:55:50;5.53;;;1.50;;
81901;SDS011;71369;50.796;3.290;2024-01-15T12:58:17;6.45;;;2.05;;
81901;SDS011;71369;50.796;3.290;2024-01-15T13:00:55;5.00;;;1.52;;
81901;SDS011;71369;50.796;3.290;2024-01-15T13:03:32;7.10;;;1.50;;
81901;SDS011;71369;50.796;3.290;2024-01-15T13:05:58;5.45;;;1.27;;
81901;SDS011;71369;50.796;3.290;2024-01-15T13:08:25;3.10;;;1.50;;
81901;SDS011;71369;50.796;3.290;2024-01-15T13:10:54;5.22;;;1.80;;
81901;SDS011;71369;50.796;3.290;2024-01-15T13:13:23;2.28;;;1.40;;
81901;SDS011;71369;50.796;3.290;2024-01-15T13:15:56;7.97;;;1.80;;
81901;SDS011;71369;50.796;3.290;2024-01-15T13:18:22;8.25;;;1.98;;
81901;SDS011;71369;50.796;3.290;2024-01-15T13:20:57;6.55;;;1.50;;
81901;SDS011;71369;50.796;3.290;2024-01-15T13:23:23;4.55;;;1.83;;
81901;SDS011;71369;50.796;3.290;2024-01-15T13:25:50;6.07;;;1.58;;
81901;SDS011;71369;50.796;3.290;2024-01-15T13:28:17;4.60;;;1.48;;
81901;SDS011;71369;50.796;3.290;2024-01-15T13:30:42;6.03;;;1.80;;
81901;SDS011;71369;50.796;3.290;2024-01-15T13:33:11;7.55;;;2.03;;
81901;SDS011;71369;50.796;3.290;2024-01-15T13:35:38;4.30;;;1.60;;
81901;SDS011;71369;50.796;3.290;2024-01-15T13:38:04;3.80;;;1.70;;
81901;SDS011;71369;50.796;3.290;2024-01-15T13:40:33;8.32;;;3.40;;
81901;SDS011;71369;50.796;3.290;2024-01-15T13:42:58;6.20;;;1.60;;
81901;SDS011;71369;50.796;3.290;2024-01-15T13:45:24;7.40;;;2.20;;
81901;SDS011;71369;50.796;3.290;2024-01-15T13:47:51;9.43;;;1.77;;
81901;SDS011;71369;50.796;3.290;2024-01-15T13:50:19;5.28;;;2.03;;
81901;SDS011;71369;50.796;3.290;2024-01-15T13:52:54;5.25;;;1.55;;
81901;SDS011;71369;50.796;3.290;2024-01-15T13:55:21;8.25;;;2.00;;
81901;SDS011;71369;50.796;3.290;2024-01-15T13:57:49;6.55;;;1.75;;
81901;SDS011;71369;50.796;3.290;2024-01-15T14:00:15;6.57;;;1.80;;
81901;SDS011;71369;50.796;3.290;2024-01-15T14:02:44;3.20;;;1.75;;
81901;SDS011;71369;50.796;3.290;2024-01-15T14:05:09;6.15;;;1.90;;
81901;SDS011;71369;50.796;3.290;2024-01-15T14:07:38;4.68;;;1.75;;
81901;SDS011;71369;50.796;3.290;2024-01-15T14:10:05;5.97;;;1.88;;
81901;SDS011;71369;50.796;3.290;2024-01-15T14:12:33;6.57;;;1.90;;
81901;SDS011;71369;50.796;3.290;2024-01-15T14:14:59;10.23;;;2.15;;
81901;SDS011;71369;50.796;3.290;2024-01-15T14:17:27;3.97;;;1.50;;
81901;SDS011;71369;50.796;3.290;2024-01-15T14:19:53;5.55;;;1.77;;
81901;SDS011;71369;50.796;3.290;2024-01-15T14:22:19;5.05;;;2.05;;
81901;SDS011;71369;50.796;3.290;2024-01-15T14:24:44;5.00;;;1.85;;
81901;SDS011;71369;50.796;3.290;2024-01-15T14:27:10;6.82;;;1.80;;
81901;SDS011;71369;50.796;3.290;2024-01-15T14:29:36;7.50;;;2.10;;
81901;SDS011;71369;50.796;3.290;2024-01-15T14:32:02;9.55;;;3.15;;
81901;SDS011;71369;50.796;3.290;2024-01-15T14:34:28;6.57;;;2.03;;
81901;SDS011;71369;50.796;3.290;2024-01-15T14:36:53;7.43;;;1.77;;
81901;SDS011;71369;50.796;3.290;2024-01-15T14:39:21;3.50;;;1.48;;
81901;SDS011;71369;50.796;3.290;2024-01-15T14:41:47;10.73;;;2.13;;
81901;SDS011;71369;50.796;3.290;2024-01-15T14:44:13;4.75;;;1.70;;
81901;SDS011;71369;50.796;3.290;2024-01-15T14:46:39;2.22;;;1.70;;
81901;SDS011;71369;50.796;3.290;2024-01-15T14:49:05;8.80;;;1.83;;
81901;SDS011;71369;50.796;3.290;2024-01-15T14:51:31;8.75;;;1.70;;
81901;SDS011;71369;50.796;3.290;2024-01-15T14:53:57;4.05;;;1.83;;
81901;SDS011;71369;50.796;3.290;2024-01-15T14:56:23;5.68;;;1.63;;
81901;SDS011;71369;50.796;3.290;2024-01-15T14:59:06;10.05;;;2.80;;
81901;SDS011;71369;50.796;3.290;2024-01-15T15:01:32;5.60;;;1.88;;
81901;SDS011;71369;50.796;3.290;2024-01-15T15:03:58;7.25;;;2.20;;
81901;SDS011;71369;50.796;3.290;2024-01-15T15:06:24;4.03;;;1.70;;
81901;SDS011;71369;50.796;3.290;2024-01-15T15:08:55;5.63;;;2.13;;
81901;SDS011;71369;50.796;3.290;2024-01-15T15:11:24;5.47;;;1.70;;
81901;SDS011;71369;50.796;3.290;2024-01-15T15:13:51;12.98;;;2.17;;
81901;SDS011;71369;50.796;3.290;2024-01-15T15:16:17;2.47;;;1.48;;